East Vail, Colorado
Current Conditions -  °F | °C
As of 12:17 PM on Thursday 30 Oct 2014 (Local Time) from KCCU Reporting Station
Clear Clear  
Wind Chill: 33°   Ceiling: Unl
Heat Index: 41°   Visibility: NA
Dew Point: 16°   Wind: 16mph
Humidity: 36%   Direction: 280°W
Pressure: 30.58"   Gusts: 26mph
Location:  39.5908°N, 106.4°W
Report Text: KCCU 301817Z AUTO 28014G23KT CLR 05/M09 A3058 RMK AO2 PWINO
Loading
Personal Weather Stations






























Interactive Weather Map New forecast layout! Learn more

10-Day Weather Forecast

Advertisements
Track Severe Weather on mobile